< < Back
Terminal Aerodrome Forecast


Current Version              Previous Versions:   1  2  3  4  5  6  7  8  9  

Terminal Aerodrome Forecast

666
FTUS44 KOHX 011100
TAFCSV
TAF
KCSV 011120Z 0112/0212 06006KT P6SM SCT250
     FM020600 16005KT P6SM SCT100=



Latest METAR

697
SAUS70 KWBC 020900 RRG
MTRCSV
METAR KCSV 020853Z AUTO 17005KT 10SM SCT060 16/M02 A3007 RMK AO2 SLP166
T01561017 56009


USA.gov is the U.S. government's official web portal to all federal, state and local government web resources and services.